Time;durP1;ratioP1;P1;durP2;ratioP2;P2;SDS_P1;SDS_P2;PMS_P1;PMS_P2;Temp;Humidity;BMP_temperature;BMP_pressure;BME280_temperature;BME280_humidity;BME280_pressure;Samples;Min_cycle;Max_cycle;Signal;HPM_P1;HPM_P2
2021/08/17 00:01:42;;;;;;;7.87;2.60;;;;;;;14.59;67.05;101705.41;5083193;28;20213;-72
2021/08/17 00:04:08;;;;;;;8.37;2.97;;;;;;;14.62;66.70;101714.91;5086057;28;20446;-71
2021/08/17 00:06:35;;;;;;;8.80;2.30;;;;;;;14.50;67.34;101704.09;5082067;28;20197;-71
2021/08/17 00:09:01;;;;;;;12.87;3.50;;;;;;;14.52;67.24;101720.81;5082491;28;20730;-72
2021/08/17 00:11:28;;;;;;;15.03;2.73;;;;;;;14.52;67.36;101711.94;5082746;28;20209;-71
2021/08/17 00:13:56;;;;;;;10.83;2.60;;;;;;;14.49;67.63;101707.84;5081720;28;20285;-71
2021/08/17 00:16:22;;;;;;;8.43;2.20;;;;;;;14.52;67.24;101711.94;5080294;28;20240;-71
2021/08/17 00:18:48;;;;;;;13.03;3.20;;;;;;;14.45;67.39;101706.63;5081090;28;20805;-72
2021/08/17 00:21:16;;;;;;;14.30;3.10;;;;;;;14.37;67.57;101713.13;5083430;28;20213;-71
2021/08/17 00:23:42;;;;;;;9.97;2.70;;;;;;;14.34;67.75;101712.75;5081871;28;20258;-71
2021/08/17 00:26:09;;;;;;;9.77;2.67;;;;;;;14.32;66.91;101696.84;5079453;28;20220;-71
2021/08/17 00:28:35;;;;;;;10.30;2.77;;;;;;;14.34;67.98;101704.69;5081451;28;20644;-71
2021/08/17 00:31:03;;;;;;;10.17;2.23;;;;;;;14.38;67.44;101709.41;5082026;28;20210;-71
2021/08/17 00:33:30;;;;;;;11.70;2.73;;;;;;;14.43;67.86;101706.03;5083626;28;20223;-72
2021/08/17 00:35:56;;;;;;;9.43;2.70;;;;;;;14.45;67.50;101705.81;5085128;28;20240;-72
2021/08/17 00:38:24;;;;;;;11.17;2.63;;;;;;;14.54;66.89;101696.41;5079781;28;20201;-72
2021/08/17 00:40:50;;;;;;;10.07;2.60;;;;;;;14.64;66.63;101692.13;5085529;28;20210;-72
2021/08/17 00:43:17;;;;;;;10.30;2.50;;;;;;;14.53;66.79;101690.19;5082743;28;20686;-71
2021/08/17 00:45:44;;;;;;;10.50;2.67;;;;;;;14.38;67.07;101698.66;5082316;28;20250;-71
2021/08/17 00:48:11;;;;;;;8.93;2.93;;;;;;;14.41;66.46;101692.00;5083158;28;20213;-72
2021/08/17 00:50:38;;;;;;;7.00;2.20;;;;;;;14.34;67.53;101702.81;5081116;28;20205;-71
2021/08/17 00:53:05;;;;;;;10.80;2.70;;;;;;;14.26;68.03;101703.13;5083044;28;20282;-71
2021/08/17 00:55:32;;;;;;;12.90;2.90;;;;;;;14.25;68.26;101703.38;5083619;28;20217;-71
2021/08/17 00:58:00;;;;;;;13.63;3.40;;;;;;;14.20;68.69;101700.53;5080844;28;20296;-72
2021/08/17 01:00:26;;;;;;;9.40;2.30;;;;;;;14.17;69.04;101700.97;5079167;28;20271;-72
2021/08/17 01:02:53;;;;;;;14.53;3.13;;;;;;;14.03;69.63;101709.19;5083988;28;20701;-71
2021/08/17 01:05:23;;;;;;;9.90;2.07;;;;;;;14.19;69.05;101694.31;5082069;28;20216;-71
2021/08/17 01:07:50;;;;;;;10.10;2.70;;;;;;;14.22;68.28;101701.94;5083228;28;20214;-72
2021/08/17 01:10:16;;;;;;;6.80;2.30;;;;;;;14.10;68.80;101701.03;5081571;28;20580;-72
2021/08/17 01:12:43;;;;;;;13.60;2.40;;;;;;;14.10;68.38;101701.91;5083973;28;20259;-71
2021/08/17 01:15:11;;;;;;;12.13;2.83;;;;;;;14.05;68.99;101698.22;5082953;28;20237;-72
2021/08/17 01:17:38;;;;;;;11.47;2.97;;;;;;;14.08;68.54;101695.91;5082612;28;20679;-72
2021/08/17 01:20:05;;;;;;;10.20;2.43;;;;;;;14.20;67.89;101698.66;5081426;28;20205;-71
2021/08/17 01:22:35;;;;;;;10.23;2.50;;;;;;;14.07;68.64;101707.69;5083428;28;20212;-71
2021/08/17 01:25:01;;;;;;;11.80;2.40;;;;;;;14.12;67.61;101697.09;5083289;28;21055;-72
2021/08/17 01:27:29;;;;;;;12.27;2.50;;;;;;;14.19;67.42;101705.06;5081223;28;20369;-72
2021/08/17 01:29:55;;;;;;;12.17;3.10;;;;;;;14.07;68.64;101705.00;5079662;28;20648;-72
2021/08/17 01:32:21;;;;;;;8.23;2.63;;;;;;;14.10;67.69;101706.41;5084070;28;20864;-71
2021/08/17 01:34:48;;;;;;;6.63;1.83;;;;;;;14.14;67.63;101708.44;5083373;28;20266;-73
2021/08/17 01:37:14;;;;;;;7.60;2.27;;;;;;;14.13;67.34;101709.50;5084061;28;20692;-71
2021/08/17 01:39:41;;;;;;;7.60;2.97;;;;;;;14.20;67.58;101720.16;5081773;28;20739;-72
2021/08/17 01:42:08;;;;;;;7.73;2.63;;;;;;;14.19;67.37;101721.19;5081537;28;20614;-71
2021/08/17 01:44:35;;;;;;;12.00;3.87;;;;;;;14.14;67.67;101724.56;5083330;28;20233;-71
2021/08/17 01:47:02;;;;;;;11.33;2.73;;;;;;;14.08;67.93;101724.63;5085332;28;20216;-71
2021/08/17 01:49:28;;;;;;;9.17;2.53;;;;;;;14.07;67.84;101726.50;5086387;28;20255;-70
2021/08/17 01:51:55;;;;;;;10.40;2.30;;;;;;;14.23;66.72;101729.63;5085341;28;20659;-71
2021/08/17 01:54:21;;;;;;;11.63;2.30;;;;;;;14.26;66.74;101730.03;5083370;28;20258;-72
2021/08/17 01:56:48;;;;;;;9.17;2.37;;;;;;;14.20;67.10;101730.09;5085141;28;20243;-72
2021/08/17 01:59:16;;;;;;;10.90;2.43;;;;;;;14.18;66.84;101734.88;5083970;28;20636;-72
2021/08/17 02:01:44;;;;;;;12.10;2.60;;;;;;;14.30;65.96;101730.38;5087210;28;20219;-72
2021/08/17 02:04:11;;;;;;;7.70;2.10;;;;;;;14.30;66.13;101731.19;5084248;28;20234;-72
2021/08/17 02:06:37;;;;;;;11.40;2.60;;;;;;;14.23;66.91;101738.53;5086587;28;20665;-72
2021/08/17 02:09:04;;;;;;;13.03;3.03;;;;;;;14.16;67.46;101731.59;5083624;28;20220;-71
2021/08/17 02:11:30;;;;;;;10.70;2.60;;;;;;;14.16;67.77;101737.78;5086711;28;20217;-72
2021/08/17 02:13:57;;;;;;;10.17;2.60;;;;;;;14.11;68.06;101749.22;5083885;28;20279;-72
2021/08/17 02:16:23;;;;;;;10.53;2.77;;;;;;;14.10;68.36;101749.41;5083776;28;20739;-72
2021/08/17 02:18:51;;;;;;;8.83;2.30;;;;;;;14.11;68.25;101749.22;5084755;28;20262;-72
2021/08/17 02:21:17;;;;;;;8.70;2.47;;;;;;;14.14;68.72;101750.63;5085268;28;20212;-72
2021/08/17 02:23:44;;;;;;;6.80;2.60;;;;;;;14.14;68.46;101745.25;5086198;28;20217;-72
2021/08/17 02:26:10;;;;;;;8.33;2.90;;;;;;;14.16;68.40;101740.47;5085907;28;20236;-71
2021/08/17 02:28:36;;;;;;;11.40;2.47;;;;;;;14.07;69.08;101741.81;5087008;28;20231;-71
2021/08/17 02:31:03;;;;;;;9.00;2.93;;;;;;;14.13;69.09;101735.56;5082754;28;20213;-72
2021/08/17 02:33:29;;;;;;;9.50;3.43;;;;;;;14.14;69.14;101729.94;5082255;28;20629;-72
2021/08/17 02:35:57;;;;;;;13.00;2.90;;;;;;;14.07;69.33;101734.56;5084226;28;20221;-72
2021/08/17 02:38:23;;;;;;;7.40;2.73;;;;;;;14.09;69.86;101737.03;5084336;28;20233;-72
2021/08/17 02:40:49;;;;;;;11.27;2.90;;;;;;;14.06;69.76;101724.06;5085206;28;20220;-72
2021/08/17 02:43:19;;;;;;;13.47;3.40;;;;;;;14.16;69.44;101732.41;5084289;28;20213;-72
2021/08/17 02:45:45;;;;;;;11.37;3.03;;;;;;;14.07;69.63;101733.75;5083194;28;20335;-71
2021/08/17 02:48:12;;;;;;;7.00;2.20;;;;;;;14.18;69.53;101734.88;5084891;28;20230;-71
2021/08/17 02:50:38;;;;;;;9.40;3.17;;;;;;;14.13;70.16;101736.38;5083628;28;20220;-72
2021/08/17 02:53:06;;;;;;;10.40;3.10;;;;;;;14.18;70.07;101730.31;5084195;28;20801;-72
2021/08/17 02:55:32;;;;;;;8.20;2.27;;;;;;;14.12;70.81;101729.38;5084363;28;20254;-72
2021/08/17 02:58:01;;;;;;;9.97;3.33;;;;;;;14.16;70.55;101718.97;5082399;28;20237;-72
2021/08/17 03:00:27;;;;;;;10.43;3.17;;;;;;;14.25;70.39;101727.56;5086376;28;20229;-72
2021/08/17 03:02:54;;;;;;;9.30;3.20;;;;;;;14.22;70.40;101723.44;5084581;28;20210;-72
2021/08/17 03:05:20;;;;;;;11.87;3.37;;;;;;;14.35;70.02;101714.38;5083651;28;20671;-72
2021/08/17 03:07:51;;;;;;;9.27;2.97;;;;;;;14.29;69.93;101716.13;5083047;28;20209;-72
2021/08/17 03:10:19;;;;;;;11.63;3.93;;;;;;;14.27;70.44;101709.34;5084619;28;20663;-72
2021/08/17 03:12:46;;;;;;;10.33;3.23;;;;;;;14.23;70.49;101718.88;5083645;28;20837;-72
2021/08/17 03:15:13;;;;;;;10.53;3.37;;;;;;;14.29;70.10;101718.81;5084222;28;20258;-72
2021/08/17 03:17:39;;;;;;;9.43;3.20;;;;;;;14.26;70.44;101716.59;5082042;28;20317;-72
2021/08/17 03:20:07;;;;;;;12.20;3.93;;;;;;;14.30;70.15;101704.31;5084325;28;20213;-71
2021/08/17 03:22:34;;;;;;;10.90;3.63;;;;;;;14.34;70.28;101702.00;5084091;28;20653;-71
2021/08/17 03:25:00;;;;;;;10.90;3.17;;;;;;;14.27;71.02;101703.97;5083747;28;21143;-71
2021/08/17 03:27:28;;;;;;;10.07;3.10;;;;;;;14.40;70.97;101696.53;5083868;28;20625;-72
2021/08/17 03:29:54;;;;;;;12.53;3.27;;;;;;;14.42;71.15;101699.81;5082715;28;20279;-71
2021/08/17 03:32:21;;;;;;;10.93;3.30;;;;;;;14.50;70.89;101697.91;5085640;28;20600;-72
2021/08/17 03:34:47;;;;;;;8.90;2.97;;;;;;;14.50;71.09;101716.72;5088340;28;20218;-74
2021/08/17 03:37:14;;;;;;;12.13;3.40;;;;;;;14.42;72.00;101712.44;5082761;28;20277;-72
2021/08/17 03:39:40;;;;;;;12.47;3.47;;;;;;;14.48;71.81;101708.03;5081317;28;20574;-72
2021/08/17 03:42:07;;;;;;;7.23;3.30;;;;;;;14.67;70.76;101734.69;5082877;28;20205;-71
2021/08/17 03:44:34;;;;;;;8.77;3.40;;;;;;;14.72;70.45;101715.16;5083798;28;20318;-72
2021/08/17 03:47:01;;;;;;;6.20;2.47;;;;;;;14.84;70.41;101699.06;5086629;28;20265;-72
2021/08/17 03:49:28;;;;;;;7.00;2.67;;;;;;;14.73;70.65;101692.59;5082922;28;20665;-71
2021/08/17 03:51:54;;;;;;;8.57;2.83;;;;;;;14.77;70.39;101709.94;5082889;28;20232;-71
2021/08/17 03:54:20;;;;;;;10.50;3.70;;;;;;;14.78;70.30;101713.44;5083886;28;20660;-71
2021/08/17 03:56:47;;;;;;;10.13;3.90;;;;;;;14.81;69.84;101716.47;5083620;28;20267;-71
2021/08/17 03:59:13;;;;;;;7.63;3.30;;;;;;;14.85;69.01;101714.97;5083212;28;20241;-72
2021/08/17 04:01:41;;;;;;;10.10;3.37;;;;;;;14.91;68.77;101714.06;5081358;28;20221;-71
2021/08/17 04:04:07;;;;;;;11.90;3.47;;;;;;;14.86;69.35;101715.78;5084480;28;20303;-72
2021/08/17 04:06:34;;;;;;;7.00;3.50;;;;;;;14.95;69.67;101720.63;5079884;28;20217;-72
2021/08/17 04:09:00;;;;;;;9.13;4.30;;;;;;;14.92;69.78;101698.72;5084299;28;20207;-71
2021/08/17 04:11:27;;;;;;;9.20;3.07;;;;;;;14.91;70.16;101700.59;5081519;28;20220;-72
2021/08/17 04:13:53;;;;;;;9.07;3.83;;;;;;;14.96;70.03;101708.78;5081973;28;20229;-71
2021/08/17 04:16:20;;;;;;;9.97;3.73;;;;;;;14.99;70.25;101702.97;5084401;28;20258;-72
2021/08/17 04:18:48;;;;;;;7.23;3.30;;;;;;;14.94;70.40;101702.84;5081260;28;20237;-72
2021/08/17 04:21:14;;;;;;;8.40;3.27;;;;;;;15.02;70.24;101697.13;5081832;28;20217;-72
2021/08/17 04:23:40;;;;;;;9.33;2.93;;;;;;;15.04;70.39;101704.97;5083540;28;20213;-72
2021/08/17 04:26:07;;;;;;;11.03;3.93;;;;;;;15.03;70.56;101700.63;5084030;28;20201;-72
2021/08/17 04:28:33;;;;;;;8.50;4.00;;;;;;;14.96;70.75;101711.50;5082946;28;20296;-72
2021/08/17 04:31:01;;;;;;;9.45;4.18;;;;;;;14.94;71.30;101708.22;5083891;28;20495;-83
2021/08/17 04:33:27;;;;;;;6.63;4.03;;;;;;;15.08;70.53;101708.00;5094880;28;20218;-83
2021/08/17 04:35:58;;;;;;;9.13;3.20;;;;;;;15.11;69.58;101707.53;5094344;28;20209;-84
2021/08/17 04:38:24;;;;;;;5.37;2.43;;;;;;;15.18;69.31;101705.56;5096562;28;20240;-84
2021/08/17 04:40:51;;;;;;;10.13;3.40;;;;;;;15.19;69.30;101717.97;5091089;28;20209;-83
2021/08/17 04:43:17;;;;;;;9.97;3.43;;;;;;;15.13;70.01;101727.81;5094990;28;20205;-84
2021/08/17 04:45:44;;;;;;;9.87;3.70;;;;;;;15.11;70.05;101732.56;5092255;28;20240;-82
2021/08/17 04:48:10;;;;;;;7.03;2.93;;;;;;;15.14;69.88;101729.44;5091525;28;20200;-82
2021/08/17 04:50:37;;;;;;;8.43;3.43;;;;;;;15.19;69.77;101726.88;5091475;28;20213;-81
2021/08/17 04:53:05;;;;;;;8.27;3.40;;;;;;;15.17;69.92;101726.28;5094117;28;21060;-82
2021/08/17 04:55:31;;;;;;;9.80;3.13;;;;;;;15.32;69.26;101710.50;5094947;28;20209;-82
2021/08/17 04:57:59;;;;;;;6.80;3.53;;;;;;;15.26;69.65;101729.47;5095464;28;20233;-82
2021/08/17 05:00:26;;;;;;;10.83;3.27;;;;;;;15.32;69.88;101729.34;5090393;28;20225;-81
2021/08/17 05:02:53;;;;;;;11.20;4.10;;;;;;;15.23;70.47;101733.41;5092628;28;20210;-82
2021/08/17 05:05:20;;;;;;;11.07;3.97;;;;;;;15.18;71.25;101740.56;5088393;28;20220;-83
2021/08/17 05:07:46;;;;;;;10.57;3.67;;;;;;;15.15;71.05;101732.97;5088183;28;20213;-84
2021/08/17 05:10:16;;;;;;;9.90;3.80;;;;;;;15.19;71.07;101729.56;5090545;28;20202;-83
2021/08/17 05:12:43;;;;;;;9.07;3.60;;;;;;;15.19;71.08;101729.56;5091720;28;20216;-82
2021/08/17 05:15:11;;;;;;;9.67;3.63;;;;;;;15.27;70.78;101721.16;5098456;28;20225;-82
2021/08/17 05:17:38;;;;;;;5.90;3.03;;;;;;;15.32;70.35;101732.03;5089598;28;20233;-82
2021/08/17 05:20:07;;;;;;;8.90;3.63;;;;;;;15.40;70.49;101730.88;5098607;28;20205;-82
2021/08/17 05:22:33;;;;;;;9.13;3.37;;;;;;;15.49;69.67;101729.47;5098059;28;20660;-82
2021/08/17 05:25:00;;;;;;;7.67;3.07;;;;;;;15.62;68.94;101722.25;5096006;28;20208;-83
2021/08/17 05:27:27;;;;;;;10.83;3.67;;;;;;;15.63;68.76;101718.53;5094709;28;20224;-82
2021/08/17 05:29:55;;;;;;;7.40;3.53;;;;;;;15.67;68.67;101717.81;5094501;28;20225;-82
2021/08/17 05:32:23;;;;;;;8.97;3.53;;;;;;;15.74;67.94;101714.97;5095579;28;20314;-82
2021/08/17 05:34:49;;;;;;;8.73;4.20;;;;;;;15.73;68.15;101710.63;5100252;28;21173;-82
2021/08/17 05:37:16;;;;;;;13.33;4.13;;;;;;;15.72;68.83;101717.91;5101520;28;20197;-82
2021/08/17 05:39:43;;;;;;;9.90;3.60;;;;;;;15.87;68.35;101709.34;5097337;28;20236;-82
2021/08/17 05:42:09;;;;;;;11.37;4.83;;;;;;;15.83;68.20;101722.47;5097564;28;20308;-83
2021/08/17 05:44:38;;;;;;;10.60;4.50;;;;;;;15.85;67.93;101714.16;5100209;28;20233;-83
2021/08/17 05:47:05;;;;;;;9.87;4.30;;;;;;;15.89;68.48;101734.19;5099261;28;20235;-82
2021/08/17 05:49:31;;;;;;;11.37;4.30;;;;;;;15.84;68.16;101729.50;5100981;28;20209;-82
2021/08/17 05:51:58;;;;;;;11.43;5.07;;;;;;;15.92;68.33;101720.25;5101042;28;20233;-82
2021/08/17 05:54:24;;;;;;;13.70;4.67;;;;;;;15.85;68.32;101724.91;5096880;28;20217;-83
2021/08/17 05:56:51;;;;;;;13.43;4.70;;;;;;;15.93;68.42;101719.19;5096981;28;20677;-82
2021/08/17 05:59:17;;;;;;;11.80;4.80;;;;;;;15.93;68.02;101712.97;5096530;28;20256;-81
2021/08/17 06:01:45;;;;;;;11.70;5.17;;;;;;;15.93;67.86;101721.88;5093173;28;20213;-81
2021/08/17 06:04:11;;;;;;;13.20;4.57;;;;;;;16.05;67.73;101722.69;5096793;28;20223;-81
2021/08/17 06:06:38;;;;;;;15.10;4.77;;;;;;;16.21;67.44;101721.09;5097625;28;20518;-82
2021/08/17 06:09:04;;;;;;;12.30;4.97;;;;;;;16.13;67.58;101725.00;5092676;28;20232;-83
2021/08/17 06:11:31;;;;;;;10.93;5.07;;;;;;;16.15;68.00;101724.78;5094579;28;20220;-81
2021/08/17 06:13:57;;;;;;;12.47;5.83;;;;;;;16.18;68.08;101729.69;5094962;28;20734;-82
2021/08/17 06:16:24;;;;;;;14.70;5.93;;;;;;;16.36;67.94;101724.09;5096325;28;20209;-81
2021/08/17 06:18:51;;;;;;;13.93;5.93;;;;;;;16.27;68.50;101712.06;5095685;28;20306;-85
2021/08/17 06:21:19;;;;;;;12.50;5.53;;;;;;;16.15;69.53;101719.38;5090075;28;20198;-85
2021/08/17 06:23:45;;;;;;;10.57;5.50;;;;;;;16.16;69.64;101726.41;5095502;28;20218;-85
2021/08/17 06:26:11;;;;;;;10.73;6.17;;;;;;;16.13;70.13;101730.41;5096560;28;20209;-85
2021/08/17 06:28:40;;;;;;;10.23;5.97;;;;;;;16.11;70.47;101732.50;5093225;28;20209;-86
2021/08/17 06:31:06;;;;;;;16.63;6.10;;;;;;;16.08;70.67;101743.75;5091754;28;20633;-85
2021/08/17 06:33:33;;;;;;;13.37;6.80;;;;;;;16.14;70.98;101753.63;5093156;28;20592;-85
2021/08/17 06:36:01;;;;;;;14.67;6.77;;;;;;;16.19;70.85;101748.31;5092945;28;20214;-85
2021/08/17 06:38:27;;;;;;;11.77;6.17;;;;;;;16.06;71.78;101748.56;5096398;28;20237;-85
2021/08/17 06:40:53;;;;;;;12.47;7.20;;;;;;;16.25;70.75;101745.72;5098842;28;20201;-85
2021/08/17 06:43:20;;;;;;;18.87;7.43;;;;;;;16.26;71.39;101750.03;5095990;28;20213;-85
2021/08/17 06:45:46;;;;;;;10.37;6.50;;;;;;;16.19;71.58;101751.00;5098421;28;20241;-83
2021/08/17 06:48:13;;;;;;;10.40;6.27;;;;;;;16.24;71.40;101755.69;5095831;28;20209;-81
2021/08/17 06:50:39;;;;;;;16.10;6.80;;;;;;;16.19;72.13;101739.41;5095261;28;20214;-83
2021/08/17 06:53:07;;;;;;;13.47;7.27;;;;;;;16.35;71.67;101735.94;5095433;28;20252;-82
2021/08/17 06:55:34;;;;;;;15.43;8.37;;;;;;;16.24;72.43;101728.72;5092854;28;20240;-82
2021/08/17 06:58:00;;;;;;;14.80;7.60;;;;;;;16.41;72.14;101724.22;5093033;28;20721;-83
2021/08/17 07:00:26;;;;;;;15.13;7.33;;;;;;;16.61;71.28;101725.66;5097364;28;20229;-82
2021/08/17 07:02:53;;;;;;;10.10;6.27;;;;;;;16.35;71.62;101713.56;5093531;28;20204;-84
2021/08/17 07:05:19;;;;;;;12.53;6.80;;;;;;;16.51;71.02;101718.19;5093734;28;20407;-83
2021/08/17 07:07:46;;;;;;;10.97;6.87;;;;;;;16.30;71.83;101718.88;5096893;28;20209;-84
2021/08/17 07:10:14;;;;;;;14.27;7.30;;;;;;;16.56;70.99;101721.00;5096228;28;20209;-83
2021/08/17 07:12:41;;;;;;;14.30;7.77;;;;;;;16.71;69.78;101717.78;5098163;28;20214;-83
2021/08/17 07:15:08;;;;;;;17.67;8.30;;;;;;;16.67;70.18;101722.00;5097358;28;20208;-84
2021/08/17 07:17:36;;;;;;;15.83;7.77;;;;;;;16.70;69.72;101725.06;5091751;28;20213;-83
2021/08/17 07:20:03;;;;;;;16.43;7.87;;;;;;;17.01;69.83;101720.19;5091053;28;20227;-84
2021/08/17 07:22:30;;;;;;;11.83;7.67;;;;;;;17.30;68.80;101718.25;5093201;28;20222;-84
2021/08/17 07:24:56;;;;;;;17.90;7.97;;;;;;;17.32;68.95;101724.22;5089930;28;20198;-83
2021/08/17 07:27:24;;;;;;;17.70;7.80;;;;;;;17.21;69.17;101719.72;5088421;28;20226;-84
2021/08/17 07:29:50;;;;;;;14.23;8.17;;;;;;;17.12;69.61;101713.09;5095511;28;20225;-84
2021/08/17 07:32:17;;;;;;;15.03;8.97;;;;;;;16.86;70.31;101715.34;5096244;28;20205;-83
2021/08/17 07:34:43;;;;;;;13.73;7.93;;;;;;;17.29;69.52;101717.44;5095042;28;20206;-84
2021/08/17 07:37:10;;;;;;;15.07;8.67;;;;;;;17.41;69.67;101703.84;5094721;28;20582;-84
2021/08/17 07:39:36;;;;;;;14.00;9.07;;;;;;;17.63;68.83;101703.88;5094856;28;20238;-84
2021/08/17 07:42:03;;;;;;;13.07;8.20;;;;;;;17.33;69.86;101696.16;5097430;28;20207;-82
2021/08/17 07:44:31;;;;;;;16.73;8.30;;;;;;;17.51;69.94;101695.06;5094470;28;20297;-84
2021/08/17 07:46:58;;;;;;;19.07;9.77;;;;;;;17.36;70.29;101696.47;5098815;28;20233;-83
2021/08/17 07:49:27;;;;;;;16.87;9.97;;;;;;;17.19;70.97;101697.56;5096458;28;20214;-83
2021/08/17 07:51:53;;;;;;;16.43;9.50;;;;;;;17.16;71.38;101692.66;5093708;28;20258;-82
2021/08/17 07:54:20;;;;;;;22.53;10.03;;;;;;;17.23;70.65;101694.09;5095922;28;20245;-82
2021/08/17 07:56:47;;;;;;;19.60;9.70;;;;;;;17.01;71.48;101704.81;5096885;28;20213;-84
2021/08/17 07:59:13;;;;;;;20.13;9.20;;;;;;;16.79;71.27;101698.50;5096819;28;20235;-82
2021/08/17 08:01:41;;;;;;;14.87;9.17;;;;;;;16.87;71.10;101708.91;5096101;28;20899;-82
2021/08/17 08:04:07;;;;;;;17.80;9.17;;;;;;;16.92;71.41;101718.97;5094332;28;20212;-82
2021/08/17 08:06:34;;;;;;;21.73;10.37;;;;;;;16.71;72.40;101718.59;5093173;28;20221;-83
2021/08/17 08:09:03;;;;;;;19.13;9.47;;;;;;;16.57;72.93;101713.72;5095142;28;20206;-82
2021/08/17 08:11:29;;;;;;;12.87;9.00;;;;;;;16.55;74.10;101705.88;5098757;28;20215;-83
2021/08/17 08:13:57;;;;;;;19.73;9.93;;;;;;;16.51;74.74;101712.78;5096086;28;20226;-85
2021/08/17 08:16:23;;;;;;;18.93;10.20;;;;;;;16.23;76.80;101710.06;5094961;28;20212;-85
2021/08/17 08:18:51;;;;;;;24.07;11.27;;;;;;;16.15;77.01;101711.28;5092825;28;21158;-85
2021/08/17 08:21:18;;;;;;;18.57;10.47;;;;;;;16.13;77.35;101711.53;5094562;28;20209;-83
2021/08/17 08:23:44;;;;;;;23.90;11.97;;;;;;;16.33;77.12;101726.47;5094056;28;20217;-79
2021/08/17 08:26:11;;;;;;;21.43;11.43;;;;;;;16.25;77.03;101735.75;5093148;28;20666;-80
2021/08/17 08:28:38;;;;;;;21.87;10.50;;;;;;;16.22;77.01;101736.22;5087988;28;20210;-79
2021/08/17 08:31:05;;;;;;;19.70;10.60;;;;;;;16.43;76.89;101740.97;5086351;28;21122;-78
2021/08/17 08:33:31;;;;;;;19.87;11.13;;;;;;;16.55;76.86;101735.53;5085209;28;20217;-78
2021/08/17 08:35:59;;;;;;;18.67;11.13;;;;;;;16.63;76.97;101728.94;5088279;28;20248;-78
2021/08/17 08:38:25;;;;;;;20.13;11.53;;;;;;;16.74;76.98;101728.09;5089926;28;20218;-79
2021/08/17 08:40:53;;;;;;;20.10;10.80;;;;;;;16.92;75.28;101724.38;5088778;28;20677;-80
2021/08/17 08:43:20;;;;;;;22.00;11.20;;;;;;;16.98;76.18;101718.81;5087456;28;20222;-79
2021/08/17 08:45:48;;;;;;;19.00;11.03;;;;;;;17.29;73.26;101706.66;5086919;28;20302;-80
2021/08/17 08:48:15;;;;;;;17.03;11.97;;;;;;;17.19;74.43;101702.97;5087720;28;20245;-80
2021/08/17 08:50:43;;;;;;;22.03;11.53;;;;;;;17.14;74.63;101713.66;5089704;28;20208;-84
2021/08/17 08:53:11;;;;;;;24.10;12.00;;;;;;;16.96;72.96;101709.31;5088091;28;20231;-81
2021/08/17 08:55:38;;;;;;;16.03;10.53;;;;;;;16.83;71.47;101701.53;5090377;28;20221;-82
2021/08/17 08:58:05;;;;;;;18.13;9.73;;;;;;;16.73;70.82;101719.19;5090472;28;20217;-84
2021/08/17 09:00:32;;;;;;;15.37;10.53;;;;;;;16.71;71.35;101724.00;5094400;28;20710;-86
2021/08/17 09:02:59;;;;;;;19.27;11.13;;;;;;;16.63;71.92;101716.25;5101636;28;20612;-86
2021/08/17 09:05:25;;;;;;;21.43;10.07;;;;;;;16.65;72.27;101724.13;5102709;28;20233;-86
2021/08/17 09:07:53;;;;;;;16.57;10.77;;;;;;;16.67;71.89;101709.38;5100423;28;20205;-84
2021/08/17 09:10:23;;;;;;;16.53;10.80;;;;;;;16.84;72.47;101714.78;5108174;28;20221;-85
2021/08/17 09:12:52;;;;;;;16.37;10.30;;;;;;;16.98;71.38;101712.59;5091697;28;20732;-84
2021/08/17 09:15:20;;;;;;;16.77;10.30;;;;;;;17.11;71.11;101723.06;5088605;28;20228;-85
2021/08/17 09:18:00;;;;;;;16.57;9.40;;;;;;;17.06;69.75;101718.41;5089665;28;20210;-85
2021/08/17 09:20:33;;;;;;;15.10;10.20;;;;;;;16.85;71.25;101702.09;5086929;28;20580;-83
2021/08/17 09:23:19;;;;;;;15.43;9.30;;;;;;;16.47;72.42;101703.56;5092138;28;20221;-85
2021/08/17 09:25:47;;;;;;;21.80;10.47;;;;;;;16.25;73.76;101710.66;5090466;28;20205;-82
2021/08/17 09:28:31;;;;;;;22.50;11.10;;;;;;;16.05;75.98;101719.16;5086034;28;21105;-82
2021/08/17 09:30:58;;;;;;;18.17;10.60;;;;;;;15.92;76.58;101722.13;5086720;28;20210;-81
2021/08/17 09:33:35;;;;;;;18.97;10.10;;;;;;;15.93;76.69;101724.56;5087336;28;20214;-82
2021/08/17 09:36:03;;;;;;;20.77;10.90;;;;;;;15.95;76.75;101721.63;5086360;28;20299;-80
2021/08/17 09:38:31;;;;;;;15.80;11.43;;;;;;;15.84;76.21;101718.72;5087525;28;20221;-80
2021/08/17 09:40:59;;;;;;;18.90;11.17;;;;;;;16.07;76.18;101719.75;5091236;28;20209;-81
2021/08/17 09:43:26;;;;;;;16.57;10.67;;;;;;;16.03;77.20;101713.19;5089824;28;20222;-81
2021/08/17 09:45:52;;;;;;;15.60;9.77;;;;;;;16.23;75.31;101705.50;5087240;28;20229;-82
2021/08/17 09:48:29;;;;;;;16.87;9.33;;;;;;;16.46;75.82;101715.41;5087248;28;21315;-81
2021/08/17 09:50:55;;;;;;;19.87;10.23;;;;;;;16.49;74.30;101707.63;5088846;28;20226;-84
2021/08/17 09:53:23;;;;;;;15.10;9.77;;;;;;;16.37;73.35;101706.03;5092517;28;20224;-85
2021/08/17 09:55:51;;;;;;;14.07;8.97;;;;;;;16.47;73.96;101712.47;5087898;28;20226;-84
2021/08/17 09:58:24;;;;;;;12.67;8.50;;;;;;;16.41;71.09;101707.22;5090292;28;20209;-84
2021/08/17 10:00:52;;;;;;;12.07;8.73;;;;;;;16.37;70.98;101711.44;5094415;28;20237;-83
2021/08/17 10:03:19;;;;;;;11.93;8.37;;;;;;;16.39;70.95;101706.66;5090015;28;20233;-85
2021/08/17 10:05:46;;;;;;;13.57;7.77;;;;;;;16.49;70.67;101713.03;5095069;28;20273;-85
2021/08/17 10:08:16;;;;;;;13.83;8.63;;;;;;;16.56;70.44;101709.38;5097468;28;20210;-85
2021/08/17 10:10:44;;;;;;;17.00;7.97;;;;;;;16.44;71.47;101712.94;5094781;28;20262;-85
2021/08/17 10:13:12;;;;;;;13.60;7.50;;;;;;;16.46;70.16;101708.13;5101309;28;20239;-84
2021/08/17 10:15:40;;;;;;;10.10;6.60;;;;;;;16.31;70.50;101705.13;5094264;28;20652;-84
2021/08/17 10:18:08;;;;;;;12.00;7.03;;;;;;;16.24;71.52;101700.94;5099824;28;20209;-84
2021/08/17 10:20:35;;;;;;;9.80;6.80;;;;;;;16.21;70.30;101706.81;5098237;28;20237;-85
2021/08/17 10:23:02;;;;;;;12.70;7.17;;;;;;;16.33;70.72;101703.00;5093321;28;20214;-85
2021/08/17 10:25:42;;;;;;;11.00;6.43;;;;;;;16.46;68.87;101707.31;5096240;28;20519;-85
2021/08/17 10:28:23;;;;;;;10.63;6.40;;;;;;;16.41;70.22;101704.53;5095345;28;20216;-84
2021/08/17 10:30:51;;;;;;;12.20;7.30;;;;;;;16.58;71.14;101696.47;5095674;28;20274;-85
2021/08/17 10:33:37;;;;;;;10.17;6.97;;;;;;;16.52;69.93;101692.88;5093601;28;20213;-85
2021/08/17 10:36:03;;;;;;;10.70;7.20;;;;;;;16.51;69.70;101695.78;5100578;28;20209;-85
2021/08/17 10:38:54;;;;;;;12.13;6.57;;;;;;;16.49;69.21;101693.31;5095349;28;20202;-85
2021/08/17 10:41:32;;;;;;;10.33;6.20;;;;;;;16.51;69.07;101699.31;5096083;28;20694;-86
2021/08/17 10:44:15;;;;;;;13.27;6.53;;;;;;;16.51;68.45;101698.47;5095063;28;20209;-86
2021/08/17 10:46:49;;;;;;;11.13;6.23;;;;;;;16.58;68.30;101701.88;5094689;28;20278;-85
2021/08/17 10:49:59;;;;;;;10.00;6.73;;;;;;;16.63;68.34;101704.66;5096316;28;20224;-85
2021/08/17 10:52:30;;;;;;;8.50;6.20;;;;;;;16.78;69.12;101704.97;5096914;28;20237;-86
2021/08/17 10:55:29;;;;;;;12.13;7.00;;;;;;;17.05;69.44;101707.88;5092044;28;20220;-86
2021/08/17 10:57:58;;;;;;;10.97;6.27;;;;;;;17.21;68.49;101701.63;5095004;28;20201;-85
2021/08/17 11:01:00;;;;;;;11.93;6.27;;;;;;;17.33;68.23;101691.56;5097384;28;20227;-85
2021/08/17 11:03:53;;;;;;;10.63;6.83;;;;;;;17.19;68.14;101706.47;5097362;28;20226;-84
2021/08/17 11:06:39;;;;;;;9.17;6.23;;;;;;;17.26;67.57;101706.28;5087001;28;20255;-86
2021/08/17 11:09:08;;;;;;;8.47;5.30;;;;;;;17.36;65.97;101706.47;5097626;28;20210;-85
2021/08/17 11:11:35;;;;;;;10.27;6.07;;;;;;;17.25;66.88;101708.19;5095146;28;20214;-85
2021/08/17 11:14:09;;;;;;;9.47;5.20;;;;;;;17.07;67.09;101692.22;5098316;28;20232;-85
2021/08/17 11:16:40;;;;;;;9.17;5.33;;;;;;;16.82;67.13;101706.13;5094622;28;20202;-86
2021/08/17 11:19:08;;;;;;;9.33;5.67;;;;;;;17.03;66.28;101721.63;5092221;28;20229;-85
2021/08/17 11:21:36;;;;;;;6.37;4.80;;;;;;;16.98;67.72;101712.59;5093471;28;20221;-85
2021/08/17 11:24:07;;;;;;;7.33;4.20;;;;;;;16.91;67.35;101704.66;5098890;28;20213;-85